createdAt,value
2023-04-26T00:00:31.000Z,0
2023-04-26T00:01:45.000Z,0
2023-04-26T00:02:59.064Z,0
2023-04-26T00:04:13.000Z,0
2023-04-26T00:05:27.000Z,0
2023-04-26T00:06:42.000Z,0
2023-04-26T00:07:56.480Z,0
2023-04-26T00:09:10.830Z,0
2023-04-26T00:10:24.000Z,0
2023-04-26T00:11:38.000Z,0
2023-04-26T00:14:06.375Z,0
2023-04-26T00:17:49.000Z,0
2023-04-26T00:19:03.783Z,0
2023-04-26T00:20:18.000Z,0
2023-04-26T00:22:46.000Z,0
2023-04-26T00:24:01.201Z,0
2023-04-26T00:25:15.562Z,0
2023-04-26T00:26:29.905Z,0
2023-04-26T00:27:44.260Z,0
2023-04-26T00:28:57.000Z,0
2023-04-26T00:30:11.086Z,0
2023-04-26T00:31:25.441Z,0
2023-04-26T00:33:54.000Z,0
2023-04-26T00:35:08.502Z,0
2023-04-26T00:36:22.853Z,0
2023-04-26T00:37:37.000Z,0
2023-04-26T00:38:51.000Z,0
2023-04-26T00:43:49.000Z,0
2023-04-26T00:45:03.000Z,0
2023-04-26T00:46:16.747Z,0
2023-04-26T00:47:31.091Z,0
2023-04-26T00:48:45.457Z,0
2023-04-26T00:51:14.156Z,0
2023-04-26T00:52:28.514Z,0
2023-04-26T00:53:42.000Z,0
2023-04-26T00:56:11.585Z,0
2023-04-26T00:57:25.000Z,0
2023-04-26T00:58:40.000Z,0
2023-04-26T01:01:09.000Z,0
2023-04-26T01:02:23.346Z,0
2023-04-26T01:03:36.757Z,0
2023-04-26T01:04:51.113Z,0
2023-04-26T01:06:05.000Z,0
2023-04-26T01:07:19.000Z,0
2023-04-26T01:08:34.172Z,0
2023-04-26T01:09:48.000Z,0
2023-04-26T01:12:17.238Z,0
2023-04-26T01:13:31.581Z,0
2023-04-26T01:14:45.000Z,0
2023-04-26T01:16:00.000Z,0
2023-04-26T01:17:14.639Z,0
2023-04-26T01:18:29.000Z,0
2023-04-26T01:19:43.353Z,0
2023-04-26T01:20:57.707Z,0
2023-04-26T01:22:12.000Z,0
2023-04-26T01:23:26.420Z,0
2023-04-26T01:24:39.000Z,0
2023-04-26T01:25:54.168Z,0
2023-04-26T01:27:07.609Z,0
2023-04-26T01:28:21.000Z,0
2023-04-26T01:29:36.000Z,0
2023-04-26T01:30:50.000Z,0
2023-04-26T01:32:05.008Z,0
2023-04-26T01:33:19.000Z,0
2023-04-26T01:34:33.000Z,0
2023-04-26T01:35:48.000Z,0
2023-04-26T01:37:01.000Z,0
2023-04-26T01:38:15.000Z,0
2023-04-26T01:39:30.000Z,0
2023-04-26T01:40:44.000Z,0
2023-04-26T01:41:58.888Z,0
2023-04-26T01:43:12.328Z,0
2023-04-26T01:44:26.665Z,0
2023-04-26T01:45:41.000Z,0
2023-04-26T01:46:55.000Z,0
2023-04-26T01:48:08.000Z,0
2023-04-26T01:49:23.000Z,0
2023-04-26T01:51:51.000Z,0
2023-04-26T01:53:06.000Z,0
2023-04-26T01:54:20.568Z,0
2023-04-26T01:56:49.000Z,0
2023-04-26T01:58:03.624Z,0
2023-04-26T01:59:17.058Z,0
2023-04-26T02:00:31.411Z,0
2023-04-26T02:01:44.806Z,0
2023-04-26T02:02:59.000Z,0
2023-04-26T02:05:27.873Z,0
2023-04-26T02:06:42.223Z,0
2023-04-26T02:07:56.000Z,0
2023-04-26T02:09:10.000Z,0
2023-04-26T02:10:25.267Z,0
2023-04-26T02:12:53.973Z,0
2023-04-26T02:14:08.000Z,0
2023-04-26T02:15:21.756Z,0
2023-04-26T02:16:36.121Z,0
2023-04-26T02:19:04.831Z,0
2023-04-26T02:20:18.000Z,0
2023-04-26T02:21:32.568Z,0
2023-04-26T02:25:15.000Z,0
2023-04-26T02:26:29.998Z,0
2023-04-26T02:27:44.358Z,0
2023-04-26T02:28:58.709Z,0
2023-04-26T02:30:13.000Z,0
2023-04-26T02:31:27.000Z,0
2023-04-26T02:32:41.772Z,0
2023-04-26T02:33:56.123Z,0
2023-04-26T02:35:10.471Z,0
2023-04-26T02:36:24.000Z,0
2023-04-26T02:37:39.192Z,0
2023-04-26T02:38:52.587Z,0
2023-04-26T02:40:06.950Z,0
2023-04-26T02:41:21.301Z,0
2023-04-26T02:42:35.000Z,0
2023-04-26T02:43:49.995Z,0
2023-04-26T02:45:04.366Z,0
2023-04-26T02:46:18.722Z,0
2023-04-26T02:47:33.000Z,0
2023-04-26T02:48:47.000Z,0
2023-04-26T02:50:00.842Z,0
2023-04-26T02:51:15.199Z,0
2023-04-26T02:52:29.000Z,0
2023-04-26T02:53:43.000Z,0
2023-04-26T02:54:57.318Z,0
2023-04-26T02:56:11.671Z,0
2023-04-26T02:57:26.020Z,0
2023-04-26T02:58:40.000Z,0
2023-04-26T02:59:54.720Z,0
2023-04-26T03:01:09.078Z,0
2023-04-26T03:02:23.439Z,0
2023-04-26T03:03:37.000Z,0
2023-04-26T03:04:52.000Z,0
2023-04-26T03:06:06.508Z,0
2023-04-26T03:07:20.000Z,0
2023-04-26T03:09:48.000Z,0
2023-04-26T03:11:02.000Z,0
2023-04-26T03:12:17.239Z,0
2023-04-26T03:13:31.550Z,0
2023-04-26T03:14:45.842Z,0
2023-04-26T03:15:59.000Z,0
2023-04-26T03:17:12.621Z,0
2023-04-26T03:18:25.983Z,0
2023-04-26T03:20:54.000Z,0
2023-04-26T03:22:08.000Z,0
2023-04-26T03:23:23.170Z,0
2023-04-26T03:24:37.475Z,0
2023-04-26T03:25:51.000Z,0
2023-04-26T03:27:06.000Z,0
2023-04-26T03:28:20.375Z,0
2023-04-26T03:29:34.000Z,0
2023-04-26T03:30:48.986Z,0
2023-04-26T03:32:03.000Z,0
2023-04-26T03:33:17.584Z,0
2023-04-26T03:34:30.928Z,0
2023-04-26T03:36:59.532Z,0
2023-04-26T03:38:13.000Z,0
2023-04-26T03:39:28.147Z,0
2023-04-26T03:40:41.000Z,0
2023-04-26T03:43:10.000Z,0
2023-04-26T03:44:24.000Z,5
2023-04-26T03:45:38.000Z,5
2023-04-26T03:46:52.000Z,5
2023-04-26T03:48:06.361Z,5
2023-04-26T03:49:20.659Z,5
2023-04-26T03:50:34.955Z,5
2023-04-26T03:51:49.254Z,11
2023-04-26T03:53:03.552Z,11
2023-04-26T03:54:17.852Z,11
2023-04-26T03:55:31.219Z,11
2023-04-26T03:56:44.566Z,11
2023-04-26T03:57:58.000Z,16
2023-04-26T03:59:13.000Z,16
2023-04-26T04:00:27.482Z,16
2023-04-26T04:01:41.775Z,22
2023-04-26T04:02:56.000Z,22
2023-04-26T04:05:24.690Z,28
2023-04-26T04:06:38.978Z,33
2023-04-26T04:07:53.274Z,33
2023-04-26T04:10:21.891Z,39
2023-04-26T04:11:35.000Z,39
2023-04-26T04:12:48.612Z,45
2023-04-26T04:14:02.911Z,50
2023-04-26T04:15:17.212Z,50
2023-04-26T04:16:31.000Z,56
2023-04-26T04:17:45.000Z,67
2023-04-26T04:19:00.100Z,78
2023-04-26T04:20:14.000Z,95
2023-04-26T04:21:28.000Z,61
2023-04-26T04:22:43.000Z,61
2023-04-26T04:23:57.000Z,67
2023-04-26T04:25:11.612Z,67
2023-04-26T04:27:40.000Z,73
2023-04-26T04:28:53.565Z,78
2023-04-26T04:30:07.859Z,78
2023-04-26T04:31:22.168Z,84
2023-04-26T04:33:50.000Z,90
2023-04-26T04:35:05.051Z,95
2023-04-26T04:36:18.000Z,101
2023-04-26T04:38:47.000Z,112
2023-04-26T04:40:01.000Z,191
2023-04-26T04:41:15.629Z,185
2023-04-26T04:42:29.940Z,123
2023-04-26T04:44:58.000Z,129
2023-04-26T04:46:11.879Z,135
2023-04-26T04:47:26.183Z,140
2023-04-26T04:49:54.000Z,146
2023-04-26T04:51:09.077Z,151
2023-04-26T04:52:23.385Z,157
2023-04-26T04:53:37.684Z,157
2023-04-26T04:54:51.977Z,163
2023-04-26T04:56:06.000Z,168
2023-04-26T04:57:20.573Z,174
2023-04-26T04:58:34.000Z,180
2023-04-26T05:01:03.493Z,191
2023-04-26T05:02:17.000Z,196
2023-04-26T05:04:46.000Z,208
2023-04-26T05:06:00.681Z,281
2023-04-26T05:07:14.000Z,568
2023-04-26T05:08:28.329Z,826
2023-04-26T05:09:42.637Z,860
2023-04-26T05:10:56.000Z,888
2023-04-26T05:12:11.000Z,933
2023-04-26T05:13:25.539Z,933
2023-04-26T05:14:39.823Z,911
2023-04-26T05:18:22.000Z,1006
2023-04-26T05:19:37.000Z,1029
2023-04-26T05:20:51.000Z,1029
2023-04-26T05:23:19.000Z,1125
2023-04-26T05:24:34.225Z,1158
2023-04-26T05:25:48.531Z,748
2023-04-26T05:27:02.000Z,303
2023-04-26T05:28:17.141Z,264
2023-04-26T05:29:31.000Z,264
2023-04-26T05:30:45.727Z,264
2023-04-26T05:33:13.000Z,270
2023-04-26T05:34:27.000Z,275
2023-04-26T05:35:42.000Z,275
2023-04-26T05:36:56.286Z,281
2023-04-26T05:38:10.576Z,303
2023-04-26T05:39:24.881Z,286
2023-04-26T05:40:39.000Z,286
2023-04-26T05:41:53.472Z,292
2023-04-26T05:43:07.791Z,292
2023-04-26T05:44:22.000Z,292
2023-04-26T05:45:36.381Z,298
2023-04-26T05:46:50.685Z,303
2023-04-26T05:48:04.978Z,303
2023-04-26T05:49:18.346Z,309
2023-04-26T05:51:46.000Z,315
2023-04-26T05:53:00.308Z,320
2023-04-26T05:54:14.000Z,320
2023-04-26T05:56:43.000Z,748
2023-04-26T05:57:56.000Z,1327
2023-04-26T05:59:10.861Z,1631
2023-04-26T06:01:39.456Z,1535
2023-04-26T06:02:53.000Z,1597
2023-04-26T06:04:08.000Z,1558
2023-04-26T06:07:50.000Z,1816
2023-04-26T06:09:05.257Z,1648
2023-04-26T06:10:19.556Z,1743
2023-04-26T06:11:33.876Z,1721
2023-04-26T06:12:48.000Z,1665
2023-04-26T06:14:02.448Z,1659
2023-04-26T06:15:16.763Z,1805
2023-04-26T06:16:31.051Z,1873
2023-04-26T06:18:59.000Z,1822
2023-04-26T06:20:13.967Z,1648
2023-04-26T06:21:28.255Z,1800
2023-04-26T06:23:56.867Z,1839
2023-04-26T06:26:25.452Z,1794
2023-04-26T06:27:39.000Z,1822
2023-04-26T06:28:54.055Z,1951
2023-04-26T06:30:08.000Z,1794
2023-04-26T06:31:21.000Z,1918
2023-04-26T06:32:36.000Z,1957
2023-04-26T06:33:50.000Z,1811
2023-04-26T06:35:04.000Z,1710
2023-04-26T06:36:18.000Z,1833
2023-04-26T06:37:32.000Z,2148
2023-04-26T06:38:46.000Z,1282
2023-04-26T06:41:15.000Z,1749
2023-04-26T06:43:43.793Z,2002
2023-04-26T06:44:58.000Z,1884
2023-04-26T06:46:12.388Z,1800
2023-04-26T06:47:26.677Z,1743
2023-04-26T06:48:40.976Z,1878
2023-04-26T06:51:09.580Z,1980
2023-04-26T06:52:23.000Z,1918
2023-04-26T06:53:38.000Z,2053
2023-04-26T06:54:51.532Z,2086
2023-04-26T06:56:05.000Z,1923
2023-04-26T06:58:34.434Z,1805
2023-04-26T06:59:48.000Z,1912
2023-04-26T07:01:03.030Z,2013
2023-04-26T07:03:31.000Z,2002
2023-04-26T07:04:45.946Z,1985
2023-04-26T07:06:00.236Z,1895
2023-04-26T07:07:14.000Z,2041
2023-04-26T07:08:28.839Z,2216
2023-04-26T07:09:43.000Z,1974
2023-04-26T07:10:56.486Z,1923
2023-04-26T07:12:10.000Z,2013
2023-04-26T07:14:39.396Z,1878
2023-04-26T07:15:53.693Z,1816
2023-04-26T07:17:08.003Z,1985
2023-04-26T07:18:22.000Z,438
2023-04-26T07:19:36.592Z,1316
2023-04-26T07:20:50.000Z,1946
2023-04-26T07:22:05.208Z,1850
2023-04-26T07:23:19.000Z,1951
2023-04-26T07:24:33.000Z,1794
2023-04-26T07:25:48.103Z,1805
2023-04-26T07:27:01.000Z,1996
2023-04-26T07:28:15.000Z,1850
2023-04-26T07:29:30.039Z,2008
2023-04-26T07:30:43.412Z,2025
2023-04-26T07:31:57.713Z,2092
2023-04-26T07:33:11.069Z,393
2023-04-26T07:34:25.364Z,365
2023-04-26T07:35:39.000Z,523
2023-04-26T07:36:53.000Z,1828
2023-04-26T07:38:08.261Z,1884
2023-04-26T07:39:22.575Z,1513
2023-04-26T07:40:36.000Z,1749
2023-04-26T07:41:51.160Z,1828
2023-04-26T07:43:05.478Z,1738
2023-04-26T07:45:33.131Z,1771
2023-04-26T07:48:01.743Z,1698
2023-04-26T07:49:16.189Z,1710
2023-04-26T07:50:30.472Z,1726
2023-04-26T07:51:44.779Z,1800
2023-04-26T07:52:59.080Z,1732
2023-04-26T07:54:13.000Z,720
2023-04-26T07:55:26.000Z,590
2023-04-26T07:56:41.027Z,731
2023-04-26T07:57:55.339Z,478
2023-04-26T07:59:09.000Z,1873
2023-04-26T08:00:23.000Z,1642
2023-04-26T08:01:38.228Z,849
2023-04-26T08:04:05.907Z,748
2023-04-26T08:05:20.000Z,1805
2023-04-26T08:06:33.556Z,1918
2023-04-26T08:10:16.455Z,1766
2023-04-26T08:11:30.000Z,1901
2023-04-26T08:12:45.000Z,1378
2023-04-26T08:13:59.349Z,489
2023-04-26T08:15:13.650Z,410
2023-04-26T08:17:42.252Z,331
2023-04-26T08:18:56.566Z,315
2023-04-26T08:20:10.000Z,292
2023-04-26T08:21:25.000Z,281
2023-04-26T08:22:38.000Z,264
2023-04-26T08:23:52.000Z,247
2023-04-26T08:25:07.100Z,225
2023-04-26T08:26:21.402Z,202
2023-04-26T08:27:35.000Z,202
2023-04-26T08:28:50.000Z,225
2023-04-26T08:30:04.296Z,315
2023-04-26T08:31:18.000Z,320
2023-04-26T08:32:32.000Z,393
2023-04-26T08:35:01.506Z,1440
2023-04-26T08:36:15.000Z,1248
2023-04-26T08:37:30.000Z,427
2023-04-26T08:38:44.000Z,354
2023-04-26T08:41:12.044Z,489
2023-04-26T08:42:26.000Z,1614
2023-04-26T08:43:40.000Z,495
2023-04-26T08:44:54.952Z,1558
2023-04-26T08:46:09.259Z,365
2023-04-26T08:47:23.547Z,500
2023-04-26T08:48:37.853Z,461
2023-04-26T08:49:52.000Z,669
2023-04-26T08:51:06.000Z,405
2023-04-26T08:52:20.000Z,421
2023-04-26T08:53:35.000Z,331
2023-04-26T08:54:49.000Z,303
2023-04-26T08:56:03.000Z,270
2023-04-26T08:57:17.000Z,236
2023-04-26T08:58:32.000Z,202
2023-04-26T08:59:46.000Z,191
2023-04-26T09:01:00.000Z,196
2023-04-26T09:02:14.000Z,225
2023-04-26T09:03:28.535Z,1271
2023-04-26T09:04:42.000Z,343
2023-04-26T09:05:57.000Z,393
2023-04-26T09:07:11.435Z,393
2023-04-26T09:08:25.000Z,382
2023-04-26T09:10:54.328Z,388
2023-04-26T09:12:08.748Z,343
2023-04-26T09:13:23.000Z,275
2023-04-26T09:14:37.357Z,225
2023-04-26T09:15:51.000Z,185
2023-04-26T09:17:05.000Z,157
2023-04-26T09:18:20.000Z,140
2023-04-26T09:19:34.557Z,123
2023-04-26T09:20:48.000Z,112
2023-04-26T09:22:03.143Z,101
2023-04-26T09:23:17.000Z,95
2023-04-26T09:24:31.000Z,90
2023-04-26T09:25:46.058Z,84
2023-04-26T09:27:00.000Z,78
2023-04-26T09:28:14.000Z,78
2023-04-26T09:30:42.300Z,101
2023-04-26T09:31:56.000Z,112
2023-04-26T09:34:25.000Z,135
2023-04-26T09:35:38.561Z,135
2023-04-26T09:38:07.173Z,151
2023-04-26T09:39:21.454Z,174
2023-04-26T09:40:35.777Z,196
2023-04-26T09:41:50.066Z,213
2023-04-26T09:43:04.365Z,225
2023-04-26T09:44:18.668Z,230
2023-04-26T09:45:32.000Z,230
2023-04-26T09:46:46.320Z,236
2023-04-26T09:48:00.000Z,230
2023-04-26T09:49:14.000Z,225
2023-04-26T09:50:29.000Z,225
2023-04-26T09:52:57.000Z,230
2023-04-26T09:54:12.000Z,236
2023-04-26T09:55:26.000Z,241
2023-04-26T09:56:40.000Z,258
2023-04-26T09:57:55.000Z,270
2023-04-26T09:59:09.304Z,270
2023-04-26T10:00:23.000Z,286
2023-04-26T10:01:37.000Z,303
2023-04-26T10:02:51.000Z,298
2023-04-26T10:04:04.615Z,309
2023-04-26T10:05:17.000Z,354
2023-04-26T10:06:32.000Z,393
2023-04-26T10:07:46.000Z,382
2023-04-26T10:09:00.000Z,388
2023-04-26T10:11:29.000Z,376
2023-04-26T10:12:43.000Z,337
2023-04-26T10:13:57.000Z,331
2023-04-26T10:15:11.000Z,309
2023-04-26T10:16:25.720Z,315
2023-04-26T10:17:40.021Z,331
2023-04-26T10:18:54.000Z,331
2023-04-26T10:20:08.628Z,320
2023-04-26T10:21:22.926Z,303
2023-04-26T10:22:37.000Z,275
2023-04-26T10:23:51.533Z,241
2023-04-26T10:25:05.838Z,230
2023-04-26T10:26:20.000Z,230
2023-04-26T10:27:34.000Z,230
2023-04-26T10:28:48.000Z,241
2023-04-26T10:30:03.026Z,253
2023-04-26T10:31:17.000Z,275
2023-04-26T10:32:31.000Z,292
2023-04-26T10:33:45.000Z,292
2023-04-26T10:35:00.000Z,315
2023-04-26T10:36:14.520Z,331
2023-04-26T10:37:28.832Z,331
2023-04-26T10:38:43.000Z,337
2023-04-26T10:39:57.000Z,331
2023-04-26T10:41:11.734Z,309
2023-04-26T10:42:26.024Z,270
2023-04-26T10:43:40.334Z,241
2023-04-26T10:44:54.000Z,219
2023-04-26T10:46:08.000Z,196
2023-04-26T10:48:36.600Z,202
2023-04-26T10:49:49.000Z,208
2023-04-26T10:51:04.258Z,219
2023-04-26T10:52:18.000Z,230
2023-04-26T10:53:32.869Z,236
2023-04-26T10:54:46.217Z,241
2023-04-26T10:57:14.000Z,258
2023-04-26T10:58:29.111Z,258
2023-04-26T10:59:43.410Z,258
2023-04-26T11:00:57.000Z,253
2023-04-26T11:02:12.000Z,253
2023-04-26T11:03:26.313Z,253
2023-04-26T11:04:40.620Z,264
2023-04-26T11:05:54.904Z,264
2023-04-26T11:07:09.000Z,270
2023-04-26T11:08:23.000Z,275
2023-04-26T11:10:52.000Z,264
2023-04-26T11:12:06.000Z,275
2023-04-26T11:14:35.000Z,303
2023-04-26T11:15:48.388Z,315
2023-04-26T11:17:02.671Z,309
2023-04-26T11:18:17.000Z,309
2023-04-26T11:19:31.271Z,303
2023-04-26T11:20:45.574Z,303
2023-04-26T11:21:59.875Z,303
2023-04-26T11:23:13.000Z,303
2023-04-26T11:24:27.000Z,292
2023-04-26T11:25:41.000Z,270
2023-04-26T11:26:56.000Z,253
2023-04-26T11:28:10.000Z,225
2023-04-26T11:29:24.000Z,208
2023-04-26T11:30:39.000Z,191
2023-04-26T11:31:53.000Z,180
2023-04-26T11:33:06.000Z,180
2023-04-26T11:34:21.000Z,191
2023-04-26T11:35:35.290Z,202
2023-04-26T11:36:49.000Z,208
2023-04-26T11:38:03.000Z,236
2023-04-26T11:39:18.193Z,264
2023-04-26T11:40:32.000Z,281
2023-04-26T11:41:46.000Z,292
2023-04-26T11:43:01.104Z,292
2023-04-26T11:44:15.000Z,270
2023-04-26T11:46:44.000Z,230
2023-04-26T11:47:58.000Z,225
2023-04-26T11:49:12.600Z,213
2023-04-26T11:50:26.888Z,202
2023-04-26T11:52:54.000Z,213
2023-04-26T11:54:07.000Z,219
2023-04-26T11:55:22.204Z,230
2023-04-26T11:56:36.000Z,219
2023-04-26T11:57:50.000Z,219
2023-04-26T11:59:05.000Z,225
2023-04-26T12:00:19.000Z,236
2023-04-26T12:02:48.000Z,253
2023-04-26T12:04:02.000Z,258
2023-04-26T12:05:16.607Z,258
2023-04-26T12:06:29.000Z,258
2023-04-26T12:07:44.000Z,258
2023-04-26T12:08:58.562Z,258
2023-04-26T12:10:12.859Z,253
2023-04-26T12:11:27.166Z,253
2023-04-26T12:12:41.457Z,247
2023-04-26T12:13:55.000Z,241
2023-04-26T12:15:10.000Z,241
2023-04-26T12:16:24.353Z,236
2023-04-26T12:17:38.655Z,247
2023-04-26T12:18:52.000Z,258
2023-04-26T12:21:21.000Z,275
2023-04-26T12:22:35.871Z,281
2023-04-26T12:26:18.000Z,286
2023-04-26T12:27:32.137Z,286
2023-04-26T12:28:46.423Z,286
2023-04-26T12:31:15.000Z,286
2023-04-26T12:32:28.000Z,286
2023-04-26T12:33:42.670Z,292
2023-04-26T12:34:57.000Z,286
2023-04-26T12:36:11.000Z,286
2023-04-26T12:37:25.000Z,281
2023-04-26T12:38:39.000Z,275
2023-04-26T12:39:54.000Z,264
2023-04-26T12:41:08.484Z,258
2023-04-26T12:43:37.000Z,258
2023-04-26T12:44:51.385Z,253
2023-04-26T12:46:05.677Z,247
2023-04-26T12:48:34.000Z,230
2023-04-26T12:49:48.000Z,219
2023-04-26T12:51:01.000Z,213
2023-04-26T12:52:16.000Z,219
2023-04-26T12:53:30.000Z,213
2023-04-26T12:54:44.830Z,219
2023-04-26T12:55:59.000Z,225
2023-04-26T12:58:27.000Z,230
2023-04-26T12:59:42.000Z,219
2023-04-26T13:00:56.000Z,191
2023-04-26T13:02:10.000Z,174
2023-04-26T13:03:24.000Z,180
2023-04-26T13:04:39.000Z,185
2023-04-26T13:05:53.000Z,196
2023-04-26T13:07:07.000Z,202
2023-04-26T13:08:22.132Z,219
2023-04-26T13:10:50.000Z,225
2023-04-26T13:12:04.076Z,230
2023-04-26T13:13:18.374Z,225
2023-04-26T13:14:32.000Z,219
2023-04-26T13:15:46.978Z,219
2023-04-26T13:17:01.000Z,225
2023-04-26T13:18:15.000Z,225
2023-04-26T13:19:29.000Z,225
2023-04-26T13:20:44.000Z,225
2023-04-26T13:21:58.000Z,208
2023-04-26T13:23:12.766Z,191
2023-04-26T13:24:27.066Z,174
2023-04-26T13:25:41.000Z,163
2023-04-26T13:26:55.681Z,146
2023-04-26T13:28:09.000Z,135
2023-04-26T13:29:22.410Z,123
2023-04-26T13:30:36.694Z,112
2023-04-26T13:31:51.000Z,101
2023-04-26T13:33:05.290Z,95
2023-04-26T13:35:33.886Z,84
2023-04-26T13:36:48.198Z,84
2023-04-26T13:38:02.000Z,90
2023-04-26T13:39:16.780Z,90
2023-04-26T13:40:31.088Z,90
2023-04-26T13:44:14.000Z,112
2023-04-26T13:45:27.366Z,123
2023-04-26T13:46:41.662Z,129
2023-04-26T13:47:55.014Z,146
2023-04-26T13:49:09.311Z,151
2023-04-26T13:50:23.000Z,157
2023-04-26T13:51:37.906Z,168
2023-04-26T13:52:52.197Z,180
2023-04-26T13:54:06.497Z,185
2023-04-26T13:55:20.808Z,180
2023-04-26T13:56:35.000Z,163
2023-04-26T13:57:49.408Z,151
2023-04-26T14:00:17.061Z,129
2023-04-26T14:01:31.371Z,118
2023-04-26T14:02:45.677Z,106
2023-04-26T14:03:59.961Z,95
2023-04-26T14:07:41.927Z,95
2023-04-26T14:08:56.000Z,95
2023-04-26T14:10:10.000Z,101
2023-04-26T14:11:24.000Z,106
2023-04-26T14:12:39.000Z,106
2023-04-26T14:13:53.428Z,106
2023-04-26T14:15:07.000Z,101
2023-04-26T14:16:22.000Z,101
2023-04-26T14:17:36.000Z,95
2023-04-26T14:18:50.000Z,90
2023-04-26T14:20:04.917Z,84
2023-04-26T14:21:19.221Z,78
2023-04-26T14:22:33.522Z,78
2023-04-26T14:23:47.000Z,73
2023-04-26T14:25:02.106Z,67
2023-04-26T14:28:45.000Z,73
2023-04-26T14:31:13.000Z,84
2023-04-26T14:32:26.978Z,90
2023-04-26T14:33:41.271Z,95
2023-04-26T14:34:55.570Z,106
2023-04-26T14:36:09.000Z,123
2023-04-26T14:37:24.000Z,129
2023-04-26T14:38:38.466Z,135
2023-04-26T14:39:52.782Z,146
2023-04-26T14:41:07.083Z,151
2023-04-26T14:42:21.372Z,151
2023-04-26T14:43:35.000Z,151
2023-04-26T14:44:49.979Z,151
2023-04-26T14:46:04.000Z,151
2023-04-26T14:47:18.568Z,151
2023-04-26T14:48:32.863Z,157
2023-04-26T14:49:47.180Z,157
2023-04-26T14:51:00.527Z,163
2023-04-26T14:53:29.114Z,157
2023-04-26T14:54:43.000Z,157
2023-04-26T14:55:57.707Z,157
2023-04-26T14:57:11.000Z,151
2023-04-26T14:58:25.000Z,151
2023-04-26T14:59:39.694Z,151
2023-04-26T15:02:07.000Z,146
2023-04-26T15:04:35.942Z,140
2023-04-26T15:05:50.233Z,129
2023-04-26T15:08:18.842Z,118
2023-04-26T15:09:33.000Z,118
2023-04-26T15:10:47.000Z,118
2023-04-26T15:12:01.000Z,123
2023-04-26T15:13:16.000Z,123
2023-04-26T15:14:30.336Z,123
2023-04-26T15:15:43.000Z,123
2023-04-26T15:16:58.000Z,123
2023-04-26T15:18:12.290Z,135
2023-04-26T15:19:25.000Z,135
2023-04-26T15:20:39.957Z,140
2023-04-26T15:23:08.000Z,140
2023-04-26T15:24:22.000Z,135
2023-04-26T15:26:51.456Z,140
2023-04-26T15:28:05.749Z,146
2023-04-26T15:29:20.000Z,151
2023-04-26T15:30:34.345Z,151
2023-04-26T15:31:48.642Z,151
2023-04-26T15:33:02.937Z,146
2023-04-26T15:35:31.554Z,129
2023-04-26T15:36:44.000Z,123
2023-04-26T15:37:59.000Z,118
2023-04-26T15:39:13.000Z,118
2023-04-26T15:40:27.785Z,112
2023-04-26T15:41:42.000Z,106
2023-04-26T15:42:56.395Z,101
2023-04-26T15:45:25.000Z,95
2023-04-26T15:46:39.000Z,95
2023-04-26T15:49:07.000Z,95
2023-04-26T15:50:22.000Z,106
2023-04-26T15:51:36.488Z,112
2023-04-26T15:52:49.000Z,118
2023-04-26T15:54:04.152Z,118
2023-04-26T15:55:18.447Z,123
2023-04-26T15:56:32.735Z,123
2023-04-26T15:57:47.039Z,123
2023-04-26T15:59:01.344Z,118
2023-04-26T16:00:15.633Z,118
2023-04-26T16:01:29.947Z,112
2023-04-26T16:02:44.244Z,112
2023-04-26T16:03:58.542Z,112
2023-04-26T16:05:12.000Z,112
2023-04-26T16:06:27.135Z,112
2023-04-26T16:07:41.000Z,112
2023-04-26T16:08:55.000Z,106
2023-04-26T16:10:10.053Z,106
2023-04-26T16:11:23.413Z,101
2023-04-26T16:12:37.000Z,101
2023-04-26T16:13:52.016Z,106
2023-04-26T16:15:05.000Z,106
2023-04-26T16:16:19.654Z,106
2023-04-26T16:17:33.952Z,106
2023-04-26T16:20:02.000Z,106
2023-04-26T16:22:31.000Z,101
2023-04-26T16:23:45.000Z,95
2023-04-26T16:24:59.000Z,90
2023-04-26T16:26:14.000Z,84
2023-04-26T16:27:28.505Z,78
2023-04-26T16:28:42.799Z,73
2023-04-26T16:29:56.159Z,73
2023-04-26T16:31:10.478Z,73
2023-04-26T16:32:23.826Z,67
2023-04-26T16:33:38.000Z,67
2023-04-26T16:34:52.000Z,61
2023-04-26T16:36:06.713Z,56
2023-04-26T16:37:21.000Z,56
2023-04-26T16:38:35.000Z,50
2023-04-26T16:39:49.629Z,50
2023-04-26T16:41:03.000Z,50
2023-04-26T16:42:18.000Z,50
2023-04-26T16:43:32.000Z,45
2023-04-26T16:44:46.000Z,45
2023-04-26T16:46:00.000Z,39
2023-04-26T16:47:14.499Z,39
2023-04-26T16:48:27.000Z,39
2023-04-26T16:49:42.000Z,39
2023-04-26T16:50:56.428Z,33
2023-04-26T16:52:10.000Z,33
2023-04-26T16:53:25.000Z,33
2023-04-26T16:54:39.330Z,33
2023-04-26T16:55:53.645Z,33
2023-04-26T16:57:07.942Z,33
2023-04-26T16:58:22.240Z,33
2023-04-26T16:59:36.000Z,33
2023-04-26T17:00:50.000Z,33
2023-04-26T17:03:19.000Z,33
2023-04-26T17:04:33.000Z,33
2023-04-26T17:05:48.042Z,39
2023-04-26T17:07:01.000Z,39
2023-04-26T17:08:15.000Z,39
2023-04-26T17:09:29.992Z,39
2023-04-26T17:10:44.000Z,39
2023-04-26T17:11:58.592Z,39
2023-04-26T17:13:11.000Z,39
2023-04-26T17:14:26.000Z,33
2023-04-26T17:15:40.000Z,33
2023-04-26T17:16:53.000Z,33
2023-04-26T17:18:08.212Z,33
2023-04-26T17:19:22.514Z,33
2023-04-26T17:21:51.123Z,28
2023-04-26T17:23:05.415Z,28
2023-04-26T17:24:19.718Z,28
2023-04-26T17:26:48.000Z,28
2023-04-26T17:28:02.605Z,28
2023-04-26T17:29:16.910Z,28
2023-04-26T17:30:31.207Z,28
2023-04-26T17:31:45.646Z,28
2023-04-26T17:32:59.000Z,28
2023-04-26T17:34:13.294Z,28
2023-04-26T17:36:41.000Z,28
2023-04-26T17:37:56.000Z,28
2023-04-26T17:40:24.803Z,28
2023-04-26T17:42:53.398Z,28
2023-04-26T17:44:07.000Z,28
2023-04-26T17:45:22.010Z,28
2023-04-26T17:46:36.314Z,22
2023-04-26T17:47:50.608Z,22
2023-04-26T17:49:04.000Z,22
2023-04-26T17:50:19.217Z,22
2023-04-26T17:51:33.503Z,22
2023-04-26T17:52:47.818Z,22
2023-04-26T17:54:02.104Z,22
2023-04-26T17:55:16.000Z,16
2023-04-26T17:56:29.787Z,16
2023-04-26T17:58:58.379Z,16
2023-04-26T18:00:12.000Z,16
2023-04-26T18:01:26.024Z,16
2023-04-26T18:02:40.326Z,11
2023-04-26T18:05:08.933Z,11
2023-04-26T18:06:23.000Z,11
2023-04-26T18:08:51.830Z,11
2023-04-26T18:11:20.000Z,5
2023-04-26T18:12:34.737Z,5
2023-04-26T18:13:49.024Z,5
2023-04-26T18:15:03.337Z,5
2023-04-26T18:16:17.000Z,5
2023-04-26T18:17:31.933Z,5
2023-04-26T18:18:46.223Z,5
2023-04-26T18:19:59.580Z,5
2023-04-26T18:21:13.000Z,0
2023-04-26T18:22:28.000Z,0
2023-04-26T18:23:42.472Z,0
2023-04-26T18:24:56.779Z,0
2023-04-26T18:26:11.078Z,0
2023-04-26T18:27:25.380Z,0
2023-04-26T18:28:39.000Z,0
2023-04-26T18:29:53.987Z,0
2023-04-26T18:31:08.290Z,0
2023-04-26T18:33:36.000Z,0
2023-04-26T18:34:51.000Z,0
2023-04-26T18:36:05.482Z,0
2023-04-26T18:37:18.000Z,0
2023-04-26T18:38:33.145Z,0
2023-04-26T18:39:47.000Z,0
2023-04-26T18:41:01.757Z,0
2023-04-26T18:42:16.173Z,0
2023-04-26T18:44:44.000Z,0
2023-04-26T18:45:59.082Z,0
2023-04-26T18:47:13.377Z,0
2023-04-26T18:49:41.981Z,0
2023-04-26T18:50:56.269Z,0
2023-04-26T18:52:10.580Z,0
2023-04-26T18:53:24.881Z,0
2023-04-26T18:54:39.169Z,0
2023-04-26T18:55:53.000Z,0
2023-04-26T18:57:07.775Z,0
2023-04-26T18:58:22.130Z,0
2023-04-26T19:00:49.900Z,0
2023-04-26T19:02:03.000Z,0
2023-04-26T19:03:17.683Z,0
2023-04-26T19:04:31.092Z,0
2023-04-26T19:05:45.441Z,0
2023-04-26T19:06:59.000Z,0
2023-04-26T19:08:14.155Z,0
2023-04-26T19:09:28.513Z,0
2023-04-26T19:13:11.000Z,0
2023-04-26T19:14:25.922Z,0
2023-04-26T19:15:40.265Z,0
2023-04-26T19:16:54.000Z,0
2023-04-26T19:18:09.000Z,0
2023-04-26T19:19:23.000Z,0
2023-04-26T19:20:37.703Z,0
2023-04-26T19:21:51.000Z,0
2023-04-26T19:23:05.000Z,0
2023-04-26T19:24:19.000Z,0
2023-04-26T19:25:34.000Z,0
2023-04-26T19:26:48.000Z,0
2023-04-26T19:28:02.000Z,0
2023-04-26T19:29:17.000Z,0
2023-04-26T19:30:31.575Z,0
2023-04-26T19:31:45.931Z,0
2023-04-26T19:34:14.639Z,0
2023-04-26T19:35:29.000Z,0
2023-04-26T19:36:43.355Z,0
2023-04-26T19:37:56.737Z,0
2023-04-26T19:39:11.105Z,0
2023-04-26T19:40:25.000Z,0
2023-04-26T19:41:39.816Z,0
2023-04-26T19:42:54.158Z,0
2023-04-26T19:44:07.584Z,0
2023-04-26T19:45:21.000Z,0
2023-04-26T19:46:35.000Z,0